CSB421 KRIC-KGSO
Flight info
| Callsign | CSB421 |
|---|---|
| Flight time | 0h 35m |
| Altitude | 26000 |
| Route | KALLI7 READE AIROW HENBY1 |
| Aircraft | B763/H-SDE3FGHIJ2J3J5M3RWXY/LB1D1 |
Departure
| Time | 2026-05-07 03:14 |
|---|---|
| Airport | Richmond International Airport (KRIC) |
Arrival
| Time | 2026-05-07 03:49 |
|---|---|
| Airport | Piedmont Triad International Airport (KGSO) |
| Time | Latitude | Longitude | Altitude | Speed | Heading |
|---|---|---|---|---|---|
| 2026-05-07 02:54 | 37.51645 | -77.31915 | 172 ft | 0 kts | 57° |
| 2026-05-07 03:06 | 37.51640 | -77.31924 | 171 ft | 2 kts | 56° |
| 2026-05-07 03:06 | 37.51631 | -77.31941 | 171 ft | 2 kts | 54° |
| 2026-05-07 03:06 | 37.51622 | -77.31955 | 171 ft | 2 kts | 52° |
| 2026-05-07 03:07 | 37.51613 | -77.31970 | 171 ft | 2 kts | 51° |
| 2026-05-07 03:07 | 37.51603 | -77.31985 | 171 ft | 2 kts | 50° |
| 2026-05-07 03:07 | 37.51597 | -77.31995 | 171 ft | 0 kts | 51° |
| 2026-05-07 03:07 | 37.51587 | -77.32007 | 171 ft | 2 kts | 30° |
| 2026-05-07 03:08 | 37.51573 | -77.32014 | 171 ft | 2 kts | 8° |
| 2026-05-07 03:08 | 37.51559 | -77.32013 | 171 ft | 2 kts | 345° |
| 2026-05-07 03:08 | 37.51548 | -77.32008 | 171 ft | 0 kts | 327° |
| 2026-05-07 03:08 | 37.51546 | -77.32006 | 171 ft | 0 kts | 326° |
| 2026-05-07 03:11 | 37.51548 | -77.32008 | 171 ft | 1 kts | 326° |
| 2026-05-07 03:11 | 37.51573 | -77.32030 | 171 ft | 6 kts | 326° |
| 2026-05-07 03:11 | 37.51629 | -77.32076 | 172 ft | 12 kts | 327° |
| 2026-05-07 03:11 | 37.51709 | -77.32140 | 172 ft | 9 kts | 327° |
| 2026-05-07 03:12 | 37.51728 | -77.32204 | 172 ft | 7 kts | 251° |
| 2026-05-07 03:12 | 37.51695 | -77.32275 | 172 ft | 11 kts | 238° |
| 2026-05-07 03:12 | 37.51646 | -77.32371 | 172 ft | 12 kts | 238° |
| 2026-05-07 03:12 | 37.51614 | -77.32443 | 171 ft | 7 kts | 216° |
| 2026-05-07 03:13 | 37.51593 | -77.32453 | 171 ft | 0 kts | 194° |
| 2026-05-07 03:13 | 37.51474 | -77.32490 | 171 ft | 45 kts | 193° |
| 2026-05-07 03:13 | 37.50966 | -77.32642 | 170 ft | 102 kts | 193° |
| 2026-05-07 03:13 | 37.50094 | -77.32903 | 172 ft | 149 kts | 194° |
| 2026-05-07 03:14 | 37.49033 | -77.33235 | 476 ft | 163 kts | 196° |
| 2026-05-07 03:14 | 37.47955 | -77.33633 | 993 ft | 166 kts | 210° |
| 2026-05-07 03:14 | 37.47048 | -77.36227 | 1620 ft | 190 kts | 275° |
| 2026-05-07 03:15 | 37.47166 | -77.37982 | 2011 ft | 213 kts | 273° |
| 2026-05-07 03:15 | 37.47222 | -77.39914 | 2640 ft | 226 kts | 267° |
| 2026-05-07 03:15 | 37.46885 | -77.41869 | 3257 ft | 240 kts | 251° |
| 2026-05-07 03:15 | 37.46386 | -77.43877 | 4123 ft | 245 kts | 254° |
| 2026-05-07 03:16 | 37.45923 | -77.45973 | 4970 ft | 251 kts | 254° |
| 2026-05-07 03:16 | 37.45482 | -77.48047 | 5988 ft | 249 kts | 255° |
| 2026-05-07 03:16 | 37.45041 | -77.50176 | 6863 ft | 254 kts | 255° |
| 2026-05-07 03:16 | 37.44604 | -77.52317 | 7737 ft | 257 kts | 255° |
| 2026-05-07 03:17 | 37.44167 | -77.54477 | 8610 ft | 260 kts | 255° |
| 2026-05-07 03:17 | 37.43727 | -77.56658 | 9536 ft | 260 kts | 256° |
| 2026-05-07 03:17 | 37.43288 | -77.58843 | 10352 ft | 263 kts | 256° |
| 2026-05-07 03:17 | 37.42830 | -77.61121 | 10885 ft | 278 kts | 256° |
| 2026-05-07 03:18 | 37.42343 | -77.63548 | 11369 ft | 294 kts | 256° |
| 2026-05-07 03:18 | 37.41833 | -77.66084 | 11838 ft | 311 kts | 256° |
| 2026-05-07 03:18 | 37.41283 | -77.68823 | 12391 ft | 327 kts | 256° |
| 2026-05-07 03:18 | 37.40711 | -77.71662 | 12908 ft | 344 kts | 256° |
| 2026-05-07 03:19 | 37.40113 | -77.74631 | 13611 ft | 354 kts | 257° |
| 2026-05-07 03:19 | 37.39512 | -77.77600 | 14587 ft | 355 kts | 257° |
| 2026-05-07 03:19 | 37.38906 | -77.80600 | 15524 ft | 356 kts | 257° |
| 2026-05-07 03:19 | 37.38303 | -77.83580 | 16487 ft | 355 kts | 257° |
| 2026-05-07 03:20 | 37.37694 | -77.86585 | 17247 ft | 358 kts | 257° |
| 2026-05-07 03:20 | 37.37085 | -77.89578 | 18173 ft | 356 kts | 258° |
| 2026-05-07 03:20 | 37.36470 | -77.92618 | 18725 ft | 365 kts | 257° |
| 2026-05-07 03:20 | 37.35842 | -77.95700 | 19452 ft | 367 kts | 257° |
| 2026-05-07 03:21 | 37.35207 | -77.98816 | 20073 ft | 372 kts | 257° |
| 2026-05-07 03:21 | 37.34573 | -78.01926 | 20669 ft | 377 kts | 257° |
| 2026-05-07 03:21 | 37.33917 | -78.05136 | 21304 ft | 380 kts | 257° |
| 2026-05-07 03:21 | 37.33257 | -78.08356 | 21892 ft | 383 kts | 257° |
| 2026-05-07 03:22 | 37.32593 | -78.11597 | 22375 ft | 389 kts | 257° |
| 2026-05-07 03:22 | 37.31916 | -78.14895 | 22898 ft | 393 kts | 257° |
| 2026-05-07 03:22 | 37.31234 | -78.18200 | 23583 ft | 394 kts | 257° |
| 2026-05-07 03:22 | 37.30549 | -78.21538 | 24374 ft | 395 kts | 256° |
| 2026-05-07 03:23 | 37.29865 | -78.24853 | 25159 ft | 396 kts | 256° |
| 2026-05-07 03:23 | 37.29172 | -78.28206 | 25766 ft | 400 kts | 256° |
| 2026-05-07 03:23 | 37.28486 | -78.31599 | 25906 ft | 404 kts | 258° |
| 2026-05-07 03:23 | 37.28128 | -78.35086 | 25908 ft | 403 kts | 266° |
| 2026-05-07 03:24 | 37.28018 | -78.38594 | 25904 ft | 400 kts | 265° |
| 2026-05-07 03:24 | 37.27887 | -78.42049 | 25906 ft | 399 kts | 266° |
| 2026-05-07 03:24 | 37.27759 | -78.45515 | 25902 ft | 399 kts | 266° |
| 2026-05-07 03:24 | 37.27632 | -78.48985 | 25908 ft | 400 kts | 266° |
| 2026-05-07 03:25 | 37.27502 | -78.52495 | 25904 ft | 399 kts | 265° |
| 2026-05-07 03:25 | 37.27373 | -78.55934 | 25900 ft | 398 kts | 265° |
| 2026-05-07 03:25 | 37.27244 | -78.59406 | 25900 ft | 398 kts | 266° |
| 2026-05-07 03:25 | 37.27113 | -78.62849 | 25898 ft | 397 kts | 266° |
| 2026-05-07 03:26 | 37.26982 | -78.66276 | 25908 ft | 396 kts | 265° |
| 2026-05-07 03:26 | 37.26850 | -78.69745 | 25919 ft | 397 kts | 265° |
| 2026-05-07 03:26 | 37.26714 | -78.73238 | 25920 ft | 398 kts | 265° |
| 2026-05-07 03:26 | 37.26582 | -78.76693 | 25914 ft | 396 kts | 265° |
| 2026-05-07 03:27 | 37.26446 | -78.80138 | 25920 ft | 395 kts | 264° |
| 2026-05-07 03:27 | 37.26311 | -78.83581 | 25914 ft | 397 kts | 265° |
| 2026-05-07 03:27 | 37.26172 | -78.87038 | 25919 ft | 397 kts | 265° |
| 2026-05-07 03:27 | 37.26033 | -78.90528 | 25911 ft | 395 kts | 264° |
| 2026-05-07 03:28 | 37.25894 | -78.93948 | 25909 ft | 394 kts | 265° |
| 2026-05-07 03:28 | 37.25756 | -78.97388 | 25853 ft | 396 kts | 265° |
| 2026-05-07 03:28 | 37.25617 | -79.00806 | 25770 ft | 390 kts | 264° |
| 2026-05-07 03:28 | 37.25479 | -79.04127 | 25543 ft | 379 kts | 264° |
| 2026-05-07 03:29 | 37.25345 | -79.07411 | 25282 ft | 372 kts | 264° |
| 2026-05-07 03:29 | 37.25209 | -79.10635 | 25023 ft | 369 kts | 265° |
| 2026-05-07 03:29 | 37.25075 | -79.13821 | 24766 ft | 370 kts | 264° |
| 2026-05-07 03:29 | 37.24938 | -79.17042 | 24513 ft | 373 kts | 265° |
| 2026-05-07 03:30 | 37.24591 | -79.20279 | 24257 ft | 374 kts | 256° |
| 2026-05-07 03:30 | 37.23738 | -79.23322 | 24023 ft | 373 kts | 246° |
| 2026-05-07 03:30 | 37.22406 | -79.26104 | 23777 ft | 374 kts | 237° |
| 2026-05-07 03:30 | 37.20774 | -79.28677 | 23536 ft | 373 kts | 235° |
| 2026-05-07 03:31 | 37.19171 | -79.31216 | 23280 ft | 373 kts | 234° |
| 2026-05-07 03:31 | 37.17537 | -79.33749 | 23021 ft | 374 kts | 234° |
| 2026-05-07 03:31 | 37.15894 | -79.36284 | 22677 ft | 376 kts | 234° |
| 2026-05-07 03:31 | 37.14251 | -79.38799 | 22254 ft | 374 kts | 235° |
| 2026-05-07 03:32 | 37.12626 | -79.41276 | 21519 ft | 368 kts | 235° |
| 2026-05-07 03:32 | 37.11004 | -79.43744 | 20782 ft | 361 kts | 235° |
| 2026-05-07 03:32 | 37.09430 | -79.46133 | 20059 ft | 356 kts | 236° |
| 2026-05-07 03:32 | 37.07860 | -79.48512 | 19332 ft | 351 kts | 237° |
| 2026-05-07 03:33 | 37.06328 | -79.50835 | 18630 ft | 350 kts | 237° |
| 2026-05-07 03:33 | 37.04794 | -79.53155 | 17916 ft | 344 kts | 238° |
| 2026-05-07 03:33 | 37.03291 | -79.55431 | 17223 ft | 340 kts | 238° |
| 2026-05-07 03:33 | 37.01779 | -79.57721 | 16518 ft | 341 kts | 237° |
| 2026-05-07 03:34 | 37.00277 | -79.59992 | 15827 ft | 338 kts | 236° |
| 2026-05-07 03:34 | 36.98792 | -79.62236 | 15140 ft | 336 kts | 236° |
| 2026-05-07 03:34 | 36.97294 | -79.64494 | 14436 ft | 334 kts | 235° |
| 2026-05-07 03:34 | 36.95822 | -79.66711 | 13781 ft | 334 kts | 234° |
| 2026-05-07 03:35 | 36.94349 | -79.68932 | 13167 ft | 332 kts | 234° |
| 2026-05-07 03:35 | 36.92870 | -79.71154 | 12570 ft | 334 kts | 233° |
| 2026-05-07 03:35 | 36.91376 | -79.73402 | 11998 ft | 335 kts | 233° |
| 2026-05-07 03:35 | 36.89917 | -79.75590 | 11912 ft | 325 kts | 233° |
| 2026-05-07 03:36 | 36.88470 | -79.77763 | 11927 ft | 330 kts | 233° |
| 2026-05-07 03:36 | 36.86972 | -79.80012 | 11928 ft | 338 kts | 233° |
| 2026-05-07 03:36 | 36.85466 | -79.82268 | 11914 ft | 335 kts | 233° |
| 2026-05-07 03:36 | 36.83964 | -79.84517 | 11925 ft | 334 kts | 233° |
| 2026-05-07 03:37 | 36.82465 | -79.86762 | 11930 ft | 335 kts | 233° |
| 2026-05-07 03:37 | 36.80976 | -79.88989 | 11933 ft | 335 kts | 233° |
| 2026-05-07 03:37 | 36.79482 | -79.91221 | 11943 ft | 335 kts | 233° |
| 2026-05-07 03:37 | 36.77984 | -79.93459 | 11944 ft | 334 kts | 233° |
| 2026-05-07 03:38 | 36.76514 | -79.95654 | 11945 ft | 335 kts | 233° |
| 2026-05-07 03:38 | 36.75014 | -79.97893 | 11942 ft | 334 kts | 233° |
| 2026-05-07 03:38 | 36.73416 | -79.99998 | 11954 ft | 337 kts | 222° |
| 2026-05-07 03:38 | 36.71373 | -80.01485 | 11978 ft | 349 kts | 206° |
| 2026-05-07 03:39 | 36.69003 | -80.02191 | 11970 ft | 358 kts | 190° |
| 2026-05-07 03:39 | 36.66490 | -80.02113 | 11971 ft | 365 kts | 181° |
| 2026-05-07 03:39 | 36.63932 | -80.01900 | 11959 ft | 365 kts | 184° |
| 2026-05-07 03:39 | 36.61420 | -80.01717 | 11954 ft | 363 kts | 183° |
| 2026-05-07 03:40 | 36.58884 | -80.01537 | 11954 ft | 362 kts | 183° |
| 2026-05-07 03:40 | 36.56468 | -80.01352 | 11929 ft | 337 kts | 184° |
| 2026-05-07 03:40 | 36.54221 | -80.01186 | 11930 ft | 312 kts | 184° |
| 2026-05-07 03:40 | 36.52126 | -80.01031 | 11926 ft | 290 kts | 185° |
| 2026-05-07 03:41 | 36.50156 | -80.00890 | 11935 ft | 278 kts | 185° |
| 2026-05-07 03:41 | 36.48234 | -80.00756 | 11950 ft | 277 kts | 185° |
| 2026-05-07 03:41 | 36.46265 | -80.00623 | 11981 ft | 284 kts | 185° |
| 2026-05-07 03:41 | 36.44274 | -80.00388 | 11925 ft | 291 kts | 173° |
| 2026-05-07 03:42 | 36.42433 | -79.99308 | 11705 ft | 301 kts | 148° |
| 2026-05-07 03:42 | 36.41027 | -79.97303 | 11127 ft | 316 kts | 124° |
| 2026-05-07 03:42 | 36.40030 | -79.94911 | 10727 ft | 311 kts | 121° |
| 2026-05-07 03:42 | 36.39085 | -79.92539 | 10290 ft | 307 kts | 121° |
| 2026-05-07 03:43 | 36.38142 | -79.90182 | 9815 ft | 303 kts | 121° |
| 2026-05-07 03:43 | 36.37208 | -79.87853 | 9389 ft | 299 kts | 121° |
| 2026-05-07 03:43 | 36.36291 | -79.85584 | 8892 ft | 297 kts | 121° |
| 2026-05-07 03:43 | 36.35358 | -79.83297 | 8371 ft | 297 kts | 121° |
| 2026-05-07 03:44 | 36.34416 | -79.81028 | 7910 ft | 293 kts | 121° |
| 2026-05-07 03:44 | 36.33429 | -79.78857 | 7412 ft | 289 kts | 133° |
| 2026-05-07 03:44 | 36.31948 | -79.77301 | 6879 ft | 277 kts | 161° |
| 2026-05-07 03:44 | 36.30145 | -79.76548 | 6428 ft | 267 kts | 171° |
| 2026-05-07 03:45 | 36.28376 | -79.75982 | 5973 ft | 265 kts | 171° |
| 2026-05-07 03:45 | 36.26566 | -79.75538 | 5473 ft | 260 kts | 184° |
| 2026-05-07 03:45 | 36.24783 | -79.75666 | 4980 ft | 255 kts | 191° |
| 2026-05-07 03:45 | 36.23141 | -79.76228 | 4603 ft | 240 kts | 219° |
| 2026-05-07 03:46 | 36.22017 | -79.77673 | 4299 ft | 228 kts | 233° |
| 2026-05-07 03:46 | 36.21011 | -79.79148 | 3931 ft | 226 kts | 230° |
| 2026-05-07 03:46 | 36.19955 | -79.80574 | 3592 ft | 221 kts | 229° |
| 2026-05-07 03:46 | 36.18921 | -79.81936 | 3236 ft | 216 kts | 229° |
| 2026-05-07 03:47 | 36.17891 | -79.83271 | 2879 ft | 212 kts | 228° |
| 2026-05-07 03:47 | 36.16894 | -79.84551 | 2566 ft | 197 kts | 228° |
| 2026-05-07 03:47 | 36.15983 | -79.85713 | 2344 ft | 179 kts | 228° |
| 2026-05-07 03:47 | 36.15167 | -79.86754 | 2096 ft | 160 kts | 228° |
| 2026-05-07 03:48 | 36.14434 | -79.87686 | 1876 ft | 138 kts | 229° |
| 2026-05-07 03:48 | 36.13792 | -79.88504 | 1663 ft | 131 kts | 229° |
| 2026-05-07 03:48 | 36.13160 | -79.89314 | 1508 ft | 133 kts | 228° |
| 2026-05-07 03:48 | 36.12498 | -79.90144 | 1365 ft | 135 kts | 227° |
| 2026-05-07 03:49 | 36.11829 | -79.90979 | 1183 ft | 139 kts | 227° |
| 2026-05-07 03:49 | 36.11161 | -79.91842 | 981 ft | 141 kts | 227° |
| 2026-05-07 03:49 | 36.10490 | -79.92701 | 893 ft | 122 kts | 225° |
| 2026-05-07 03:49 | 36.10081 | -79.93220 | 895 ft | 48 kts | 225° |
| 2026-05-07 03:50 | 36.10001 | -79.93337 | 896 ft | 7 kts | 263° |
| 2026-05-07 03:50 | 36.10025 | -79.93390 | 896 ft | 7 kts | 317° |
| 2026-05-07 03:50 | 36.10061 | -79.93433 | 896 ft | 6 kts | 316° |
| 2026-05-07 03:50 | 36.10095 | -79.93471 | 896 ft | 6 kts | 320° |
| 2026-05-07 03:51 | 36.10133 | -79.93469 | 896 ft | 7 kts | 29° |
| 2026-05-07 03:51 | 36.10182 | -79.93410 | 895 ft | 11 kts | 46° |
| 2026-05-07 03:51 | 36.10244 | -79.93331 | 894 ft | 13 kts | 46° |
| 2026-05-07 03:51 | 36.10312 | -79.93244 | 894 ft | 14 kts | 46° |
| 2026-05-07 03:52 | 36.10387 | -79.93150 | 893 ft | 15 kts | 46° |
| 2026-05-07 03:52 | 36.10461 | -79.93053 | 893 ft | 15 kts | 46° |
| 2026-05-07 03:52 | 36.10538 | -79.92955 | 892 ft | 16 kts | 46° |
| 2026-05-07 03:52 | 36.10620 | -79.92851 | 892 ft | 17 kts | 46° |
| 2026-05-07 03:53 | 36.10704 | -79.92744 | 892 ft | 17 kts | 46° |
| 2026-05-07 03:53 | 36.10789 | -79.92635 | 892 ft | 16 kts | 46° |
| 2026-05-07 03:53 | 36.10848 | -79.92560 | 892 ft | 10 kts | 46° |
| 2026-05-07 03:53 | 36.10897 | -79.92498 | 892 ft | 9 kts | 45° |
| 2026-05-07 03:54 | 36.10946 | -79.92487 | 892 ft | 7 kts | 326° |
| 2026-05-07 03:54 | 36.10983 | -79.92514 | 892 ft | 4 kts | 354° |
| 2026-05-07 03:54 | 36.11015 | -79.92503 | 892 ft | 5 kts | 10° |
| 2026-05-07 03:54 | 36.11043 | -79.92513 | 893 ft | 3 kts | 324° |
| 2026-05-07 03:55 | 36.11055 | -79.92526 | 894 ft | 1 kts | 316° |
| 2026-05-07 03:55 | 36.11064 | -79.92537 | 895 ft | 1 kts | 315° |
| 2026-05-07 03:55 | 36.11069 | -79.92543 | 895 ft | 0 kts | 315° |